Orr, North Dakota
Current Conditions -  °F | °C
As of 12:58 AM on Wednesday 22 Oct 2014 (Local Time) from KRDR Reporting Station
Clear Clear  
Wind Chill: 55°   Ceiling: Unl
Heat Index: 55°   Visibility: 10mi
Dew Point: 42°   Wind: 20mph
Humidity: 63%   Direction: 160°SSE
Pressure: 29.84"   Gusts: 28mph
Location:  48.1078°N, 97.7089°W
Report Text: KRDR 220558Z AUTO 16017G24KT 10SM CLR 13/06 A2984 RMK AO2 SLP111 T01250056 10156 20124 401940023 57005
Loading
Personal Weather Stations






























Interactive Weather Map
Tropical Storm Tracking
New forecast layout! Learn more

10-Day Weather Forecast

Advertisements
Track Severe Weather on mobile